Time;durP1;ratioP1;P1;durP2;ratioP2;P2;SDS_P1;SDS_P2;PMS_P1;PMS_P2;Temp;Humidity;BMP_temperature;BMP_pressure;BME280_temperature;BME280_humidity;BME280_pressure;Samples;Min_cycle;Max_cycle;Signal;HPM_P1;HPM_P2
2022/12/12 00:00:37;;;;;;;13.73;11.47;;;;;;;-0.06;100.00;97973.53;4202526;28;20215;-46
2022/12/12 00:02:40;;;;;;;11.25;9.25;;;;;;;-0.07;100.00;97976.41;4199895;28;20341;-46
2022/12/12 00:04:42;;;;;;;12.23;11.03;;;;;;;-0.07;100.00;97979.94;4202465;28;20230;-46
2022/12/12 00:06:44;;;;;;;15.23;11.60;;;;;;;-0.05;100.00;97975.19;4185258;28;20797;-46
2022/12/12 00:08:45;;;;;;;15.07;10.17;;;;;;;0.02;100.00;97975.25;4202672;28;20674;-47
2022/12/12 00:10:47;;;;;;;12.20;9.40;;;;;;;-0.01;100.00;97971.09;4200819;28;20257;-46
2022/12/12 00:12:49;;;;;;;14.70;11.10;;;;;;;-0.13;100.00;97971.84;4184162;28;21114;-46
2022/12/12 00:14:51;;;;;;;17.87;9.37;;;;;;;-0.11;100.00;97969.78;4198992;28;20245;-46
2022/12/12 00:16:52;;;;;;;12.83;11.50;;;;;;;-0.25;100.00;97967.19;4205064;28;20233;-46
2022/12/12 00:18:54;;;;;;;12.10;10.77;;;;;;;-0.22;100.00;97966.81;4202752;28;20293;-46
2022/12/12 00:20:56;;;;;;;18.07;10.07;;;;;;;-0.18;100.00;97963.53;4204993;28;20668;-47
2022/12/12 00:22:58;;;;;;;14.13;11.83;;;;;;;-0.14;100.00;97972.84;4201857;28;20329;-45
2022/12/12 00:25:00;;;;;;;17.07;9.73;;;;;;;0.01;100.00;97965.53;4201129;28;20239;-46
2022/12/12 00:27:02;;;;;;;11.37;10.13;;;;;;;-0.35;100.00;97969.41;4221078;27;20266;-46
2022/12/12 00:29:04;;;;;;;15.13;10.60;;;;;;;-0.24;100.00;97971.53;4193004;28;20290;-46
2022/12/12 00:31:06;;;;;;;12.53;11.03;;;;;;;-0.15;100.00;97968.50;4204160;28;20246;-46
2022/12/12 00:33:08;;;;;;;14.63;10.63;;;;;;;-0.20;100.00;97962.88;4202130;28;20290;-45
2022/12/12 00:35:09;;;;;;;16.37;10.47;;;;;;;-0.10;100.00;97971.44;4219292;27;20232;-46
2022/12/12 00:37:12;;;;;;;12.63;10.80;;;;;;;-0.03;100.00;97969.63;4201032;28;20230;-47
2022/12/12 00:39:14;;;;;;;18.67;11.03;;;;;;;-0.08;100.00;97968.56;4195066;28;20580;-47
2022/12/12 00:41:19;;;;;;;12.63;9.50;;;;;;;0.00;100.00;97967.38;4219341;27;20289;-47
2022/12/12 00:43:21;;;;;;;12.97;9.23;;;;;;;-0.16;100.00;97974.09;4216555;27;20315;-46
2022/12/12 00:45:23;;;;;;;18.85;10.60;;;;;;;-0.20;100.00;97964.75;4202361;28;20211;-47
2022/12/12 00:47:25;;;;;;;19.87;10.77;;;;;;;-0.22;100.00;97972.19;4203625;28;20668;-47
2022/12/12 00:49:27;;;;;;;12.10;9.37;;;;;;;-0.20;100.00;97975.50;4205834;28;20294;-46
2022/12/12 00:51:29;;;;;;;15.57;10.90;;;;;;;-0.12;100.00;97977.00;4207873;28;20690;-46
2022/12/12 00:53:31;;;;;;;10.60;9.50;;;;;;;-0.18;100.00;97973.44;4200597;28;20268;-47
2022/12/12 00:55:33;;;;;;;19.27;12.17;;;;;;;-0.19;100.00;97966.41;4200698;28;20207;-45
2022/12/12 00:57:35;;;;;;;15.63;11.60;;;;;;;-0.21;100.00;97968.47;4204434;28;20306;-45
2022/12/12 00:59:37;;;;;;;16.67;11.63;;;;;;;-0.30;100.00;97966.94;4203300;28;21946;-44
2022/12/12 01:01:38;;;;;;;12.60;10.30;;;;;;;-0.33;100.00;97970.88;4219213;27;20261;-46
2022/12/12 01:03:41;;;;;;;12.20;8.73;;;;;;;-0.36;100.00;97970.44;4199929;28;20227;-45
2022/12/12 01:05:43;;;;;;;16.40;11.53;;;;;;;-0.37;100.00;97974.13;4202272;28;20203;-45
2022/12/12 01:07:45;;;;;;;13.98;11.23;;;;;;;-0.38;100.00;97978.69;4208462;28;20262;-45
2022/12/12 01:09:47;;;;;;;15.53;11.57;;;;;;;-0.33;100.00;97970.03;4200740;28;20211;-45
2022/12/12 01:11:48;;;;;;;14.83;10.17;;;;;;;-0.34;100.00;97973.75;4198401;28;20219;-45
2022/12/12 01:13:51;;;;;;;12.38;9.77;;;;;;;-0.39;100.00;97970.81;4205948;28;20799;-45
2022/12/12 01:15:53;;;;;;;16.33;10.93;;;;;;;-0.43;100.00;97974.88;4201782;28;20288;-45
2022/12/12 01:17:55;;;;;;;16.63;10.33;;;;;;;-0.37;100.00;97968.75;4216340;28;20288;-45
2022/12/12 01:19:57;;;;;;;14.57;9.80;;;;;;;-0.42;100.00;97976.59;4188406;28;20669;-45
2022/12/12 01:21:59;;;;;;;12.73;11.23;;;;;;;-0.54;100.00;97972.75;4199852;28;20202;-45
2022/12/12 01:24:01;;;;;;;15.33;10.33;;;;;;;-0.58;100.00;97971.47;4201072;28;20754;-45
2022/12/12 01:26:06;;;;;;;12.23;9.97;;;;;;;-0.62;100.00;97975.59;4199631;28;20306;-45
2022/12/12 01:28:08;;;;;;;12.38;11.02;;;;;;;-0.64;100.00;97969.56;4217685;27;20202;-45
2022/12/12 01:30:14;;;;;;;19.80;10.60;;;;;;;-0.67;100.00;97983.38;4205093;28;20202;-44
2022/12/12 01:32:16;;;;;;;15.90;11.47;;;;;;;-0.66;100.00;97985.03;4216828;28;20230;-45
2022/12/12 01:34:18;;;;;;;15.80;11.37;;;;;;;-0.71;100.00;97992.84;4197823;28;20207;-46
2022/12/12 01:36:21;;;;;;;13.23;11.57;;;;;;;-0.74;100.00;97987.84;4205619;28;20265;-46
2022/12/12 01:38:23;;;;;;;11.87;9.20;;;;;;;-0.77;100.00;97994.44;4183087;28;20680;-44
2022/12/12 01:40:28;;;;;;;24.97;11.43;;;;;;;-0.75;100.00;97992.38;4202969;28;20234;-45
2022/12/12 01:42:29;;;;;;;11.73;10.45;;;;;;;-0.79;100.00;97999.19;4203743;28;20230;-44
2022/12/12 01:44:48;;;;;;;10.60;9.27;;;;;;;-0.79;100.00;97998.34;4200659;28;20281;-44
2022/12/12 01:46:50;;;;;;;11.37;10.23;;;;;;;-0.83;100.00;98005.94;4191024;28;20258;-45
2022/12/12 01:48:55;;;;;;;13.23;10.57;;;;;;;-0.78;100.00;98008.06;4216963;28;20245;-44
2022/12/12 01:50:59;;;;;;;11.87;10.53;;;;;;;-0.84;100.00;98008.81;4198418;28;20225;-44
2022/12/12 01:53:01;;;;;;;15.87;10.87;;;;;;;-0.83;100.00;98011.31;4214846;28;20290;-45
2022/12/12 01:55:05;;;;;;;11.53;10.33;;;;;;;-0.89;100.00;98005.91;4215645;27;20222;-44
2022/12/12 01:57:12;;;;;;;13.30;10.20;;;;;;;-0.90;100.00;98010.41;4219815;27;20222;-45
2022/12/12 01:59:17;;;;;;;12.27;10.10;;;;;;;-0.89;100.00;98011.25;4203736;28;20218;-45
2022/12/12 02:01:19;;;;;;;12.17;9.23;;;;;;;-0.91;100.00;98007.91;4217255;28;20286;-45
2022/12/12 02:03:21;;;;;;;18.67;10.37;;;;;;;-0.91;100.00;98007.91;4203305;28;20240;-45
2022/12/12 02:05:48;;;;;;;14.83;10.73;;;;;;;-0.88;100.00;98007.56;4187338;28;20910;-45
2022/12/12 02:07:50;;;;;;;18.30;11.50;;;;;;;-0.93;100.00;98009.97;4206215;28;20612;-46
2022/12/12 02:09:52;;;;;;;11.90;10.47;;;;;;;-0.98;100.00;98007.88;4198871;28;20908;-46
2022/12/12 02:11:56;;;;;;;17.03;12.13;;;;;;;-1.03;100.00;98012.13;4215887;27;20751;-45
2022/12/12 02:13:58;;;;;;;16.90;11.03;;;;;;;-1.06;100.00;98015.19;4199352;28;20211;-45
2022/12/12 02:16:21;;;;;;;16.00;11.47;;;;;;;-1.08;100.00;98017.25;4204608;28;21772;-45
2022/12/12 02:18:43;;;;;;;20.50;9.97;;;;;;;-1.12;100.00;98021.31;4218203;27;20202;-45
2022/12/12 02:20:57;;;;;;;13.67;11.97;;;;;;;-1.17;100.00;98013.00;4200017;28;20614;-44
2022/12/12 02:23:24;;;;;;;16.77;11.47;;;;;;;-1.17;100.00;98018.38;4205567;28;20365;-46
2022/12/12 02:25:42;;;;;;;17.43;11.93;;;;;;;-1.20;100.00;98024.13;4216223;28;20645;-45
2022/12/12 02:28:02;;;;;;;25.40;12.37;;;;;;;-1.23;100.00;98019.13;4199465;28;20231;-45
2022/12/12 02:30:08;;;;;;;15.77;10.20;;;;;;;-1.23;100.00;98025.31;4205596;28;20697;-44
2022/12/12 02:32:39;;;;;;;13.60;11.33;;;;;;;-1.26;100.00;98025.72;4190558;28;20195;-45
2022/12/12 02:34:59;;;;;;;13.00;11.40;;;;;;;-1.25;100.00;98021.16;4190385;28;20238;-45
2022/12/12 02:37:33;;;;;;;17.37;11.90;;;;;;;-1.24;100.00;98018.31;4203710;28;20254;-46
2022/12/12 02:39:37;;;;;;;18.10;12.23;;;;;;;-1.25;100.00;98016.63;4217801;27;20237;-45
2022/12/12 02:42:01;;;;;;;18.57;12.73;;;;;;;-1.28;100.00;98017.00;4201685;28;20290;-44
2022/12/12 02:44:40;;;;;;;22.57;12.43;;;;;;;-1.24;100.00;98020.97;4197449;28;20310;-44
2022/12/12 02:46:55;;;;;;;24.53;13.30;;;;;;;-1.27;100.00;98023.22;4208197;28;20587;-45
2022/12/12 02:49:04;;;;;;;19.13;12.80;;;;;;;-1.25;100.00;98021.16;4200061;28;20207;-45
2022/12/12 02:51:07;;;;;;;14.87;12.27;;;;;;;-1.26;100.00;98020.34;4203618;28;20233;-45
2022/12/12 02:53:09;;;;;;;19.77;12.67;;;;;;;-1.25;100.00;98022.00;4215720;28;20617;-46
2022/12/12 02:55:11;;;;;;;14.73;13.23;;;;;;;-1.20;100.00;98018.75;4201027;28;20231;-44
2022/12/12 02:57:16;;;;;;;19.30;14.33;;;;;;;-1.18;100.00;98016.69;4204836;28;20234;-45
2022/12/12 02:59:39;;;;;;;17.07;12.60;;;;;;;-1.17;100.00;98029.09;4217058;28;20218;-45
2022/12/12 03:02:05;;;;;;;17.10;13.30;;;;;;;-1.15;100.00;98016.34;4187376;28;20442;-45
2022/12/12 03:09:24;;;;;;;17.60;13.20;;;;;;;-1.15;100.00;98021.72;4218597;27;20281;-45
2022/12/12 03:11:44;;;;;;;17.77;12.60;;;;;;;-1.19;100.00;98020.41;4208584;28;20199;-45
2022/12/12 03:13:49;;;;;;;21.37;12.30;;;;;;;-1.20;100.00;98019.56;4206107;28;20255;-45
2022/12/12 03:16:12;;;;;;;22.77;13.40;;;;;;;-1.19;100.00;98018.56;4207750;28;20851;-44
2022/12/12 03:18:33;;;;;;;19.97;13.87;;;;;;;-1.23;100.00;98019.13;4218830;28;20629;-45
2022/12/12 03:20:43;;;;;;;17.70;11.80;;;;;;;-1.12;100.00;98005.22;4219183;27;20203;-45
2022/12/12 03:22:50;;;;;;;13.33;11.93;;;;;;;-1.26;100.00;98014.13;4192854;28;21133;-45
2022/12/12 03:25:07;;;;;;;22.10;14.90;;;;;;;-1.29;100.00;98018.03;4206405;28;20312;-46
2022/12/12 03:27:15;;;;;;;22.87;12.80;;;;;;;-1.27;100.00;98012.47;4206557;28;20232;-45
2022/12/12 03:29:21;;;;;;;17.47;11.83;;;;;;;-1.37;100.00;98019.97;4206134;28;20226;-45
2022/12/12 03:31:27;;;;;;;19.07;13.43;;;;;;;-1.34;100.00;98012.38;4205104;28;20226;-45
2022/12/12 03:33:38;;;;;;;22.03;14.37;;;;;;;-1.36;100.00;98013.59;4194181;28;20200;-45
2022/12/12 03:35:46;;;;;;;22.33;12.43;;;;;;;-1.45;100.00;98014.72;4219130;27;22216;-45
2022/12/12 03:37:51;;;;;;;15.53;11.63;;;;;;;-1.49;100.00;98016.13;4219598;27;20316;-45
2022/12/12 03:40:00;;;;;;;22.03;13.93;;;;;;;-1.49;100.00;98014.25;4192360;28;20207;-45
2022/12/12 03:42:11;;;;;;;15.83;13.50;;;;;;;-1.33;100.00;98019.41;4201100;28;20235;-46
2022/12/12 03:44:21;;;;;;;18.43;12.00;;;;;;;-1.44;100.00;98016.38;4204923;28;20214;-45
2022/12/12 03:46:31;;;;;;;18.37;13.00;;;;;;;-1.51;100.00;98023.50;4203851;28;21196;-45
2022/12/12 03:48:36;;;;;;;24.50;13.17;;;;;;;-1.50;100.00;98027.84;4206746;28;20206;-45
2022/12/12 03:50:50;;;;;;;16.53;11.37;;;;;;;-1.58;100.00;98025.28;4200338;28;20598;-45
2022/12/12 03:52:57;;;;;;;16.80;11.77;;;;;;;-1.49;100.00;98034.91;4203545;28;20214;-46
2022/12/12 03:55:13;;;;;;;12.63;11.00;;;;;;;-1.61;100.00;98025.66;4221667;27;20206;-46
2022/12/12 03:57:20;;;;;;;15.17;12.70;;;;;;;-1.59;100.00;98023.63;4218475;27;20221;-45
2022/12/12 03:59:36;;;;;;;13.27;10.63;;;;;;;-1.56;100.00;98028.59;4186930;28;20843;-45
2022/12/12 04:01:52;;;;;;;17.27;11.00;;;;;;;-1.58;100.00;98026.13;4200998;28;20209;-45
2022/12/12 04:03:56;;;;;;;25.63;12.00;;;;;;;-1.80;100.00;98021.69;4200892;28;20233;-45
2022/12/12 04:08:20;;;;;;;16.97;13.73;;;;;;;-1.86;100.00;98016.25;4217118;27;20206;-46
2022/12/12 04:12:59;;;;;;;13.77;11.67;;;;;;;-2.03;100.00;98018.25;4217304;28;20206;-45
2022/12/12 04:15:28;;;;;;;13.80;12.03;;;;;;;-1.99;100.00;98014.22;4203312;28;20893;-45
2022/12/12 04:17:40;;;;;;;14.77;12.53;;;;;;;-1.94;100.00;98024.38;4217593;27;20258;-45
2022/12/12 04:24:44;;;;;;;25.63;14.70;;;;;;;-2.14;100.00;98023.25;4215484;28;20223;-46
2022/12/12 04:26:59;;;;;;;18.60;13.10;;;;;;;-2.19;100.00;98020.28;4200676;28;20237;-46
2022/12/12 04:29:28;;;;;;;13.57;11.33;;;;;;;-2.21;100.00;98033.03;4200358;28;20254;-45
2022/12/12 04:31:31;;;;;;;23.63;13.90;;;;;;;-2.22;100.00;98028.69;4219344;28;20225;-45
2022/12/12 04:33:40;;;;;;;19.03;14.40;;;;;;;-2.21;100.00;98033.03;4201094;28;20239;-45
2022/12/12 04:35:44;;;;;;;17.73;13.03;;;;;;;-2.29;100.00;98033.09;4202971;28;20234;-45
2022/12/12 04:37:51;;;;;;;19.57;14.00;;;;;;;-2.34;100.00;98039.00;4193855;28;20231;-44
2022/12/12 04:39:56;;;;;;;14.40;12.63;;;;;;;-2.36;100.00;98037.50;4199853;28;20629;-44
2022/12/12 04:41:59;;;;;;;18.47;12.87;;;;;;;-2.37;100.00;98036.69;4218745;28;20242;-45
2022/12/12 04:44:03;;;;;;;22.57;13.07;;;;;;;-2.40;100.00;98045.06;4184520;28;20212;-45
2022/12/12 04:46:09;;;;;;;16.67;13.03;;;;;;;-2.46;100.00;98045.81;4214916;28;20265;-44
2022/12/12 04:48:17;;;;;;;21.83;14.87;;;;;;;-2.47;100.00;98048.66;4202491;28;20213;-45
2022/12/12 04:50:21;;;;;;;18.77;13.77;;;;;;;-2.52;100.00;98051.03;4190046;28;20290;-45
2022/12/12 04:52:24;;;;;;;21.63;14.43;;;;;;;-2.50;100.00;98049.00;4201953;28;20305;-45
2022/12/12 04:54:40;;;;;;;25.20;12.00;;;;;;;-2.43;100.00;98049.94;4201487;28;20232;-45
2022/12/12 04:56:43;;;;;;;22.43;13.10;;;;;;;-2.52;100.00;98051.91;4205858;28;20947;-44
2022/12/12 04:58:45;;;;;;;22.37;12.70;;;;;;;-2.55;100.00;98049.56;4205742;28;20263;-44
2022/12/12 05:01:02;;;;;;;16.00;11.77;;;;;;;-2.58;100.00;98067.81;4219682;27;20269;-44
2022/12/12 05:03:29;;;;;;;18.90;14.50;;;;;;;-2.61;100.00;98057.50;4204965;28;20215;-45
2022/12/12 05:05:38;;;;;;;19.50;14.10;;;;;;;-2.63;100.00;98064.84;4206004;28;20223;-45
2022/12/12 05:07:43;;;;;;;20.93;12.03;;;;;;;-2.61;100.00;98057.50;4205473;28;20279;-46
2022/12/12 05:09:46;;;;;;;17.97;12.97;;;;;;;-2.59;100.00;98058.13;4206638;28;20255;-44
2022/12/12 05:11:48;;;;;;;20.37;14.33;;;;;;;-2.60;100.00;98059.97;4204484;28;20329;-45
2022/12/12 05:13:50;;;;;;;16.97;13.37;;;;;;;-2.58;100.00;98057.13;4187075;28;20246;-45
2022/12/12 05:15:53;;;;;;;17.07;14.13;;;;;;;-2.55;100.00;98056.78;4201978;28;20238;-46
2022/12/12 05:17:59;;;;;;;13.03;10.30;;;;;;;-2.49;100.00;98064.91;4200852;28;20724;-46
2022/12/12 05:20:01;;;;;;;12.73;11.33;;;;;;;-2.53;100.00;98054.75;4205699;28;20273;-45
2022/12/12 05:22:03;;;;;;;14.23;12.77;;;;;;;-2.50;100.00;98057.91;4197380;28;20218;-45
2022/12/12 05:24:05;;;;;;;16.53;14.43;;;;;;;-2.44;100.00;98062.53;4184037;28;20238;-46
2022/12/12 05:26:18;;;;;;;17.27;14.90;;;;;;;-2.51;100.00;98058.06;4214624;27;20320;-45
2022/12/12 05:28:19;;;;;;;16.00;13.10;;;;;;;-2.64;100.00;98063.19;4205745;28;20198;-45
2022/12/12 05:30:22;;;;;;;20.53;14.23;;;;;;;-2.68;100.00;98059.22;4218756;27;20294;-46
2022/12/12 05:32:24;;;;;;;15.27;13.10;;;;;;;-2.66;100.00;98065.22;4216212;28;20249;-46
2022/12/12 05:34:25;;;;;;;14.80;11.30;;;;;;;-2.62;100.00;98066.53;4199350;28;20726;-45
2022/12/12 05:36:27;;;;;;;16.17;12.47;;;;;;;-2.68;100.00;98064.56;4198451;28;20262;-45
2022/12/12 05:38:29;;;;;;;26.23;13.93;;;;;;;-2.67;100.00;98063.56;4198351;28;20731;-46
2022/12/12 05:40:31;;;;;;;19.53;13.60;;;;;;;-2.74;100.00;98057.25;4191082;28;20211;-46
2022/12/12 05:42:32;;;;;;;21.23;12.87;;;;;;;-2.80;100.00;98057.97;4200940;28;20306;-45
2022/12/12 05:44:34;;;;;;;13.93;12.47;;;;;;;-2.82;100.00;98065.34;4196496;28;20293;-45
2022/12/12 05:46:36;;;;;;;21.70;13.50;;;;;;;-2.85;100.00;98065.69;4213567;27;20222;-45
2022/12/12 05:48:38;;;;;;;14.93;13.33;;;;;;;-2.88;100.00;98066.06;4195262;28;20238;-46
2022/12/12 05:50:39;;;;;;;13.73;11.30;;;;;;;-2.78;100.00;98066.63;4185513;28;20272;-45
2022/12/12 05:52:42;;;;;;;25.77;13.50;;;;;;;-2.63;100.00;98067.53;4195893;28;20213;-46
2022/12/12 05:54:44;;;;;;;23.10;12.63;;;;;;;-2.67;100.00;98068.91;4192965;28;20301;-46
2022/12/12 05:56:46;;;;;;;16.30;13.23;;;;;;;-2.74;100.00;98067.97;4197829;28;20619;-46
2022/12/12 05:58:48;;;;;;;18.53;13.80;;;;;;;-2.82;100.00;98066.16;4202307;28;20206;-45
2022/12/12 06:00:50;;;;;;;21.87;13.00;;;;;;;-2.99;100.00;98069.13;4215360;27;20210;-46
2022/12/12 06:02:52;;;;;;;16.97;13.13;;;;;;;-2.90;100.00;98073.41;4194847;28;20206;-46
2022/12/12 06:04:54;;;;;;;12.23;10.97;;;;;;;-3.01;100.00;98076.50;4196393;28;20225;-45
2022/12/12 06:06:56;;;;;;;19.20;12.40;;;;;;;-3.05;100.00;98075.19;4193114;28;20227;-46
2022/12/12 06:08:58;;;;;;;18.33;14.17;;;;;;;-3.20;100.00;98068.91;4192806;28;20215;-52
2022/12/12 06:11:00;;;;;;;38.57;14.97;;;;;;;-3.34;100.00;98086.50;4196350;28;20202;-50
2022/12/12 06:13:02;;;;;;;16.33;14.20;;;;;;;-3.34;100.00;98081.16;4190125;28;20534;-49
2022/12/12 06:15:04;;;;;;;23.63;15.43;;;;;;;-3.34;100.00;98083.03;4200587;28;20210;-49
2022/12/12 06:17:06;;;;;;;22.10;12.13;;;;;;;-3.32;100.00;98083.69;4200340;28;20253;-48
2022/12/12 06:19:08;;;;;;;16.03;12.83;;;;;;;-3.30;100.00;98081.66;4182476;28;20659;-48
2022/12/12 06:21:11;;;;;;;31.83;13.20;;;;;;;-3.30;100.00;98085.19;4202835;28;20233;-48
2022/12/12 06:23:13;;;;;;;30.60;12.97;;;;;;;-3.13;100.00;98083.25;4196443;28;20692;-50
2022/12/12 06:25:15;;;;;;;17.70;12.17;;;;;;;-3.15;100.00;98082.59;4186822;28;20222;-49
2022/12/12 06:27:17;;;;;;;14.73;13.23;;;;;;;-3.22;100.00;98085.13;4197467;28;20280;-48
2022/12/12 06:29:19;;;;;;;17.53;11.40;;;;;;;-3.26;100.00;98082.97;4206367;28;20239;-49
2022/12/12 06:31:20;;;;;;;15.97;11.83;;;;;;;-3.17;100.00;98087.28;4198464;28;20234;-49
2022/12/12 06:33:22;;;;;;;22.60;12.70;;;;;;;-3.23;100.00;98083.47;4200889;28;20253;-49
2022/12/12 06:35:24;;;;;;;19.43;10.47;;;;;;;-3.24;100.00;98087.16;4206515;28;20195;-49
2022/12/12 06:37:26;;;;;;;14.00;11.63;;;;;;;-3.27;100.00;98092.03;4199247;28;20237;-49
2022/12/12 06:39:28;;;;;;;22.97;12.13;;;;;;;-3.22;100.00;98087.81;4204737;28;20206;-48
2022/12/12 06:41:30;;;;;;;16.53;13.00;;;;;;;-3.23;100.00;98093.31;4207566;28;20289;-48
2022/12/12 06:43:32;;;;;;;13.60;11.50;;;;;;;-3.26;100.00;98086.47;4195809;28;20223;-49
2022/12/12 06:45:34;;;;;;;17.83;11.93;;;;;;;-3.29;100.00;98089.50;4198387;28;20235;-48
2022/12/12 06:47:36;;;;;;;19.40;12.83;;;;;;;-3.31;100.00;98093.38;4198448;28;20272;-48
2022/12/12 06:49:38;;;;;;;17.57;13.00;;;;;;;-3.29;100.00;98094.00;4201881;28;20592;-47
2022/12/12 06:51:43;;;;;;;19.13;13.93;;;;;;;-3.31;100.00;98101.38;4196530;28;20211;-48
2022/12/12 06:53:45;;;;;;;15.67;13.50;;;;;;;-3.34;100.00;98101.75;4198212;28;20261;-49
2022/12/12 06:55:47;;;;;;;18.40;11.57;;;;;;;-3.36;100.00;98098.38;4200329;28;20203;-49
2022/12/12 06:57:49;;;;;;;18.73;12.70;;;;;;;-3.41;100.00;98100.78;4187426;28;21149;-48
2022/12/12 06:59:51;;;;;;;14.33;12.07;;;;;;;-3.39;100.00;98102.28;4203409;28;20249;-48
2022/12/12 07:01:55;;;;;;;17.53;11.33;;;;;;;-3.39;100.00;98109.44;4215254;28;20206;-48
2022/12/12 07:03:57;;;;;;;15.83;13.53;;;;;;;-3.33;100.00;98112.25;4199019;28;20617;-49
2022/12/12 07:05:59;;;;;;;15.20;13.17;;;;;;;-3.36;100.00;98109.09;4198662;28;20268;-48
2022/12/12 07:08:01;;;;;;;23.40;13.60;;;;;;;-3.40;100.00;98108.59;4198301;28;20359;-48
2022/12/12 07:10:04;;;;;;;14.63;11.43;;;;;;;-3.43;100.00;98108.13;4196916;28;20208;-48
2022/12/12 07:12:06;;;;;;;14.57;13.17;;;;;;;-3.38;100.00;98119.13;4202940;28;20306;-48
2022/12/12 07:14:09;;;;;;;19.63;14.10;;;;;;;-3.40;100.00;98118.47;4216616;28;20210;-48
2022/12/12 07:16:10;;;;;;;16.80;13.50;;;;;;;-3.44;100.00;98117.16;4197487;28;20208;-48
2022/12/12 07:18:13;;;;;;;18.63;13.30;;;;;;;-3.47;100.00;98128.19;4201571;28;20214;-48
2022/12/12 07:20:15;;;;;;;19.23;14.20;;;;;;;-3.47;100.00;98122.84;4204468;28;20238;-48
2022/12/12 07:22:17;;;;;;;17.73;13.10;;;;;;;-3.24;100.00;98134.44;4196902;28;20293;-47
2022/12/12 07:24:19;;;;;;;15.73;12.43;;;;;;;-3.31;100.00;98122.78;4198958;28;20602;-48
2022/12/12 07:26:21;;;;;;;22.33;15.23;;;;;;;-3.24;100.00;98126.44;4196297;28;20235;-48
2022/12/12 07:28:23;;;;;;;15.73;14.13;;;;;;;-3.27;100.00;98129.47;4213366;28;20294;-48
2022/12/12 07:30:25;;;;;;;18.60;13.80;;;;;;;-3.39;100.00;98129.00;4199608;28;20226;-48
2022/12/12 07:32:27;;;;;;;33.37;14.13;;;;;;;-3.35;100.00;98132.16;4202807;28;20249;-50
2022/12/12 07:34:29;;;;;;;16.20;12.13;;;;;;;-3.31;100.00;98128.97;4200262;28;20237;-50
2022/12/12 07:36:30;;;;;;;19.40;13.33;;;;;;;-3.30;100.00;98140.50;4203382;28;20581;-48
2022/12/12 07:38:35;;;;;;;20.77;12.53;;;;;;;-3.21;100.00;98134.13;4215443;28;20297;-48
2022/12/12 07:40:38;;;;;;;19.87;12.40;;;;;;;-3.43;100.00;98145.53;4197749;28;20260;-49
2022/12/12 07:42:41;;;;;;;15.47;12.03;;;;;;;-3.24;100.00;98137.13;4195581;28;20203;-50
2022/12/12 07:44:42;;;;;;;21.33;14.50;;;;;;;-3.24;100.00;98135.28;4201937;28;20298;-49
2022/12/12 07:46:44;;;;;;;17.83;14.03;;;;;;;-3.24;100.00;98145.16;4212530;28;20993;-48
2022/12/12 07:48:46;;;;;;;17.73;12.80;;;;;;;-3.20;100.00;98135.78;4201817;28;20280;-48
2022/12/12 07:50:49;;;;;;;14.93;13.00;;;;;;;-3.20;100.00;98139.28;4200182;28;20210;-48
2022/12/12 07:52:50;;;;;;;16.33;14.60;;;;;;;-3.16;100.00;98145.94;4200086;28;20219;-48
2022/12/12 07:54:52;;;;;;;19.20;13.00;;;;;;;-3.12;100.00;98143.75;4200727;28;20217;-47
2022/12/12 07:56:54;;;;;;;18.07;14.37;;;;;;;-3.10;100.00;98144.41;4218165;27;20222;-50
2022/12/12 07:58:56;;;;;;;22.57;14.53;;;;;;;-2.98;100.00;98148.38;4201875;28;20249;-49
2022/12/12 08:00:58;;;;;;;19.47;14.83;;;;;;;-2.95;100.00;98156.88;4200639;28;20245;-48
2022/12/12 08:02:59;;;;;;;17.30;11.50;;;;;;;-2.88;100.00;98157.84;4198646;28;20298;-48
2022/12/12 08:05:01;;;;;;;15.73;13.63;;;;;;;-2.98;100.00;98159.94;4205899;28;20211;-48
2022/12/12 08:07:03;;;;;;;19.30;12.63;;;;;;;-2.95;100.00;98162.25;4216656;28;20767;-50
2022/12/12 08:09:09;;;;;;;13.60;12.30;;;;;;;-2.89;100.00;98171.41;4206630;28;20305;-49
2022/12/12 08:11:15;;;;;;;12.47;11.23;;;;;;;-2.86;100.00;98171.88;4220706;27;20209;-47
2022/12/12 08:13:17;;;;;;;15.47;12.53;;;;;;;-2.86;100.00;98181.78;4206354;28;21126;-49
2022/12/12 08:15:19;;;;;;;18.63;11.53;;;;;;;-2.86;100.00;98171.88;4204050;28;20205;-50
2022/12/12 08:17:21;;;;;;;16.77;12.53;;;;;;;-2.78;100.00;98179.03;4204073;28;20235;-50
2022/12/12 08:19:23;;;;;;;18.93;14.27;;;;;;;-3.06;100.00;98180.53;4204100;28;20207;-48
2022/12/12 08:21:26;;;;;;;19.03;13.70;;;;;;;-3.06;100.00;98185.88;4218954;28;20725;-52
2022/12/12 08:23:28;;;;;;;30.27;14.00;;;;;;;-3.14;100.00;98183.25;4218388;28;20236;-49
2022/12/12 08:25:30;;;;;;;22.23;12.50;;;;;;;-3.02;100.00;98174.66;4190155;28;20211;-49
2022/12/12 08:27:32;;;;;;;20.40;12.43;;;;;;;-2.75;100.00;98174.19;4201813;28;20226;-49
2022/12/12 08:29:35;;;;;;;19.17;12.97;;;;;;;-2.86;100.00;98177.22;4202843;28;20214;-48
2022/12/12 08:31:38;;;;;;;13.60;11.67;;;;;;;-2.96;100.00;98175.78;4199305;28;20554;-49
2022/12/12 08:33:40;;;;;;;23.23;14.03;;;;;;;-3.08;100.00;98185.22;4200395;28;20243;-48
2022/12/12 08:35:42;;;;;;;16.40;12.07;;;;;;;-2.89;100.00;98187.44;4217604;28;22745;-48
2022/12/12 08:37:43;;;;;;;12.60;11.40;;;;;;;-2.88;100.00;98189.16;4216588;27;20249;-48
2022/12/12 08:39:45;;;;;;;17.10;12.40;;;;;;;-2.77;100.00;98194.09;4185826;28;20212;-48
2022/12/12 08:41:53;;;;;;;17.10;13.10;;;;;;;-2.75;100.00;98195.59;4216867;27;20719;-48
2022/12/12 08:43:55;;;;;;;19.63;12.80;;;;;;;-2.58;100.00;98193.66;4207294;28;20607;-48
2022/12/12 08:46:00;;;;;;;20.87;13.23;;;;;;;-2.46;100.00;98201.13;4203974;28;20832;-48
2022/12/12 08:48:03;;;;;;;17.03;12.23;;;;;;;-2.50;100.00;98204.31;4207569;28;20235;-48
2022/12/12 08:50:05;;;;;;;20.00;11.63;;;;;;;-2.61;100.00;98199.38;4216956;27;20649;-48
2022/12/12 08:52:08;;;;;;;19.17;13.00;;;;;;;-2.72;100.00;98202.44;4218216;27;20214;-47
2022/12/12 08:54:11;;;;;;;14.57;13.07;;;;;;;-2.64;100.00;98202.41;4203608;28;20207;-48
2022/12/12 08:56:14;;;;;;;21.63;12.20;;;;;;;-2.42;100.00;98196.25;4197736;28;20674;-48
2022/12/12 08:58:16;;;;;;;13.47;11.80;;;;;;;-2.51;100.00;98202.66;4205013;28;20678;-48
2022/12/12 09:00:18;;;;;;;14.97;11.77;;;;;;;-2.44;100.00;98199.09;4214592;27;20241;-49
2022/12/12 09:02:19;;;;;;;25.23;12.50;;;;;;;-2.50;100.00;98190.94;4199614;28;20203;-47
2022/12/12 09:04:21;;;;;;;14.87;12.10;;;;;;;-2.41;100.00;98197.94;4199239;28;20219;-49
2022/12/12 09:06:24;;;;;;;20.17;12.57;;;;;;;-2.39;100.00;98201.25;4186494;28;20249;-48
2022/12/12 09:08:27;;;;;;;18.73;12.43;;;;;;;-2.55;100.00;98202.19;4217610;27;20669;-48
2022/12/12 09:10:28;;;;;;;16.87;11.77;;;;;;;-2.54;100.00;98197.66;4197432;28;20202;-48
2022/12/12 09:12:30;;;;;;;16.63;10.37;;;;;;;-2.49;100.00;98200.63;4215436;27;20222;-48
2022/12/12 09:14:38;;;;;;;21.07;14.40;;;;;;;-2.58;100.00;98202.53;4197752;28;20238;-49
2022/12/12 09:16:40;;;;;;;15.57;12.13;;;;;;;-2.45;100.00;98207.31;4183312;28;20227;-47
2022/12/12 09:18:42;;;;;;;14.10;12.50;;;;;;;-2.37;100.00;98209.94;4195631;28;20322;-49
2022/12/12 09:20:53;;;;;;;16.93;11.60;;;;;;;-2.31;100.00;98214.59;4187240;28;20265;-49
2022/12/12 09:22:55;;;;;;;19.13;14.90;;;;;;;-2.26;100.00;98218.41;4197757;28;20648;-49
2022/12/12 09:24:57;;;;;;;29.20;15.30;;;;;;;-2.13;100.00;98215.13;4215954;27;20221;-48
2022/12/12 09:26:59;;;;;;;25.50;14.90;;;;;;;-2.03;100.00;98219.25;4215584;27;20295;-49
2022/12/12 09:29:01;;;;;;;27.50;14.13;;;;;;;-1.86;100.00;98215.44;4218684;27;20225;-47
2022/12/12 09:31:04;;;;;;;32.10;15.57;;;;;;;-1.72;100.00;98216.50;4187839;28;20224;-48
2022/12/12 09:33:07;;;;;;;31.73;13.63;;;;;;;-1.65;100.00;98215.59;4200860;28;20201;-48
2022/12/12 09:35:10;;;;;;;21.80;14.07;;;;;;;-1.78;100.00;98211.84;4198029;28;20202;-48
2022/12/12 09:37:13;;;;;;;17.00;12.13;;;;;;;-1.79;100.00;98210.19;4202738;28;20333;-48
2022/12/12 09:39:14;;;;;;;14.70;11.43;;;;;;;-1.87;100.00;98219.13;4183019;28;20338;-47
2022/12/12 09:41:18;;;;;;;20.83;13.47;;;;;;;-1.67;100.00;98214.09;4189234;28;20287;-48
2022/12/12 09:43:25;;;;;;;25.47;14.27;;;;;;;-1.59;100.00;98214.88;4198432;28;20223;-47